Главная страница
METAR-TAF:

METAR-TAF

Аэропорты :

Щецин, Польша

широта: 53-35N, долгота: 014-54E, высота над уровнем моря: 1 м

Текущие метеонаблюдения

Эта сводка был подготовлена 26 минут назад, в 02:00 UTC
Ветер 5 Узел от северо-западный
Температура 3°C
Влажность 93%
Давление 1028 hPa
Видимость: 9000 м

METAR: EPSC 240200Z 31005KT 9000 NSC 03/02 Q1028

Время: 03:26 (02:26 UTC)

Прогноз

Эта сводка был подготовлена 2 часа и 56 минут назад, в 23:30 UTC
Прогноз действительный с 24-го 00 UTC до 24-го 24 UTC
Ветер 3 Узел от западно-северо-западный
Видимость 10 км и более
Нет облачности ниже 1500 м, и нет кучево-дождевой облачности
Вероятность 40%
С 24-го 03 UTC до 24-го 07 UTC
Видимость: 4000 м
дымка

TAF: EPSC 232330Z 2400/2424 29003KT CAVOK PROB40 2403/2407 4000 BR

Метеонаблюдения и прогнозы для более 4000 аэропортов (сводки METAR и TAF).

Имеющиеся станции представлены на карте желтыми и красными точками.

Чтобы увидеть название станции, наведите на нее мышь.

Затем щелкните, чтобы увидеть метеонаблюдения и метеопрогнозы.

Управление картой: чтобы увеличить масштаб, щелкните зеленые кнопки с черным крестиком; чтобы уменьшить масштаб, щелкните зеленую кнопку с тире; для просмотра соседних карт щелкайте зеленые стрелки.


METAR-TAF: